Alcala de Henares, Spain
Current Conditions -  °F | °C
As of 1:00 PM on Monday 24 Nov 2014 (Local Time) from LETO Reporting Station
Clear Clear  
Wind Chill: 64°   Ceiling: Unl
Heat Index: 64°   Visibility: 6mi
Dew Point: 48°   Wind: 2mph
Humidity: 56%   Direction: 350°N
Pressure: 30.03"   Gusts: NA
Location:  40.48°N, 3.36°W
Report Text: LETO 241200Z 35002KT CAVOK 18/09 Q1017 NOSIG
Loading
Personal Weather Stations






























Interactive Weather Map New forecast layout! Learn more

10-Day Weather Forecast

Advertisements
Track Severe Weather on mobile